KBHM

Birmingham-Shuttlesworth International Airport

Birmingham, Alabama, USA
METAR KBHM 191453Z 17008KT 10SM FEW014 OVC020 25/22 A3004 RMK AO2 SLP164 T02500217 51005
Observed Flight Rules
Aug-19 @ 14:53 UTC (45 minutes ago) Marginal Visual Flight Rules
Wind Visibility Clouds
170° at 8 knots 10 miles
  • Few at 1,400' AGL
  • Overcast at 2,000' AGL
Temperatures Readings
Current 25°C / 77°F
Dewpoint 22°C / 72°F
Humidity 83%
Altimeter 30.04" Hg
Pressure 1016.4 hPa
Elevation 197
METAR KBHM 191453Z 17008KT 10SM FEW014 OVC020 25/22 A3004 RMK AO2 SLP164 T02500217 51005
Observed Flight Rules
Aug-19 @ 14:53 UTC
(45 minutes ago)
MVFR
Wind Visibility
170° at 8 knots 10 miles
Clouds
  • Few at 1,400' AGL
  • Overcast at 2,000' AGL
Temperature Dewpoint
25°C / 77°F 22°C / 72°F
Humidity Altimeter Pressure
83% 30.04" Hg 1016.4 hPa